Time;durP1;ratioP1;P1;durP2;ratioP2;P2;SDS_P1;SDS_P2;PMS_P1;PMS_P2;Temp;Humidity;BMP_temperature;BMP_pressure;BME280_temperature;BME280_humidity;BME280_pressure;Samples;Min_cycle;Max_cycle;Signal;HPM_P1;HPM_P2
2021/05/12 00:00:36;;;;;;;32.60;25.20;;;13.50;99.90;;;;;;5060499;28;20202;-80
2021/05/12 00:03:01;;;;;;;33.03;24.83;;;13.40;99.90;;;;;;5062306;28;20185;-80
2021/05/12 00:05:27;;;;;;;34.97;25.70;;;13.30;99.90;;;;;;5062227;28;20179;-80
2021/05/12 00:07:56;;;;;;;33.07;25.50;;;13.50;99.90;;;;;;5061441;28;20182;-80
2021/05/12 00:10:23;;;;;;;34.27;25.57;;;13.50;99.90;;;;;;5063002;28;20210;-80
2021/05/12 00:12:52;;;;;;;39.23;26.10;;;13.50;99.90;;;;;;5061667;28;20242;-80
2021/05/12 00:15:22;;;;;;;36.13;27.23;;;13.50;99.90;;;;;;5045341;28;20174;-80
2021/05/12 00:17:50;;;;;;;38.27;27.33;;;13.50;99.90;;;;;;5062435;28;20182;-80
2021/05/12 00:20:21;;;;;;;37.50;27.70;;;13.50;99.90;;;;;;5061922;28;20198;-80
2021/05/12 00:23:14;;;;;;;39.80;28.77;;;13.50;99.90;;;;;;5063778;28;20695;-80
2021/05/12 00:25:40;;;;;;;40.00;28.93;;;13.50;99.90;;;;;;5052258;28;20221;-80
2021/05/12 00:28:06;;;;;;;38.77;29.63;;;13.50;99.90;;;;;;5064414;28;20186;-80
2021/05/12 00:30:34;;;;;;;44.33;30.90;;;13.50;99.90;;;;;;5065992;28;20205;-80
2021/05/12 00:33:00;;;;;;;41.70;29.10;;;13.50;99.90;;;;;;5048231;28;20209;-80
2021/05/12 00:35:26;;;;;;;37.80;28.93;;;13.50;99.90;;;;;;5063739;28;20235;-80
2021/05/12 00:37:52;;;;;;;39.40;29.23;;;13.50;99.90;;;;;;5063596;28;20664;-80
2021/05/12 00:40:19;;;;;;;41.33;29.53;;;13.50;99.90;;;;;;5061892;28;20205;-80
2021/05/12 00:42:46;;;;;;;41.03;28.47;;;13.40;99.90;;;;;;5062470;28;20178;-80
2021/05/12 00:45:13;;;;;;;38.97;29.10;;;13.30;99.90;;;;;;5061816;28;20178;-80
2021/05/12 00:47:39;;;;;;;33.23;27.27;;;13.30;99.90;;;;;;5061889;28;20596;-80
2021/05/12 00:50:06;;;;;;;39.27;29.07;;;13.20;99.90;;;;;;5062320;28;20197;-80
2021/05/12 00:52:32;;;;;;;33.33;27.57;;;13.20;99.90;;;;;;5056306;28;20722;-80
2021/05/12 00:54:57;;;;;;;38.93;26.87;;;13.20;99.90;;;;;;5055446;28;20174;-80
2021/05/12 00:57:24;;;;;;;35.83;27.23;;;13.20;99.90;;;;;;5057359;28;20177;-80
2021/05/12 00:59:53;;;;;;;39.20;28.93;;;13.20;99.90;;;;;;5042089;28;20198;-80
2021/05/12 01:02:19;;;;;;;38.57;27.97;;;13.20;99.90;;;;;;5058506;28;20174;-80
2021/05/12 01:04:46;;;;;;;37.53;27.77;;;13.10;99.90;;;;;;5059986;28;20178;-80
2021/05/12 01:07:12;;;;;;;38.87;27.20;;;13.10;99.90;;;;;;5059767;28;20269;-80
2021/05/12 01:09:37;;;;;;;36.10;27.13;;;13.10;99.90;;;;;;5058842;28;20218;-80
2021/05/12 01:12:03;;;;;;;35.47;28.07;;;13.10;99.90;;;;;;5059426;28;20715;-80
2021/05/12 01:14:29;;;;;;;37.47;28.73;;;13.10;99.90;;;;;;5059092;28;20170;-80
2021/05/12 01:16:55;;;;;;;35.67;26.77;;;13.10;99.90;;;;;;5058673;28;20668;-81
2021/05/12 01:19:21;;;;;;;35.97;27.27;;;13.10;99.90;;;;;;5059289;28;20194;-80
2021/05/12 01:21:46;;;;;;;35.73;27.97;;;13.10;99.90;;;;;;5059398;28;20174;-80
2021/05/12 01:24:14;;;;;;;36.00;28.07;;;13.10;99.90;;;;;;5061036;28;20265;-80
2021/05/12 01:26:41;;;;;;;35.90;28.10;;;13.10;99.90;;;;;;5042429;28;20672;-81
2021/05/12 01:29:08;;;;;;;33.97;27.47;;;13.10;99.90;;;;;;5042378;28;20233;-81
2021/05/12 01:31:36;;;;;;;36.97;28.53;;;13.00;99.90;;;;;;5058883;28;20186;-81
2021/05/12 01:34:03;;;;;;;34.67;28.00;;;13.10;99.90;;;;;;5058737;28;20166;-81
2021/05/12 01:36:29;;;;;;;37.60;27.60;;;13.10;99.90;;;;;;5058393;28;20174;-81
2021/05/12 01:38:55;;;;;;;37.87;27.47;;;13.10;99.90;;;;;;5057682;28;20239;-81
2021/05/12 01:41:24;;;;;;;37.70;28.83;;;13.10;99.90;;;;;;5063893;28;20178;-80
2021/05/12 01:43:53;;;;;;;35.87;26.73;;;13.00;99.90;;;;;;5061370;28;20265;-81
2021/05/12 01:46:19;;;;;;;37.80;28.40;;;13.00;99.90;;;;;;5041861;28;20276;-81
2021/05/12 01:48:44;;;;;;;39.73;28.77;;;13.10;99.90;;;;;;5058725;28;20619;-81
2021/05/12 01:51:10;;;;;;;37.97;28.80;;;13.10;99.90;;;;;;5041631;28;20182;-80
2021/05/12 01:53:36;;;;;;;40.67;29.27;;;13.10;99.90;;;;;;5057453;28;20202;-80
2021/05/12 01:56:05;;;;;;;43.27;31.13;;;13.10;99.90;;;;;;5057588;28;20170;-80
2021/05/12 01:58:34;;;;;;;37.73;28.57;;;13.10;99.90;;;;;;5057613;28;20211;-81
2021/05/12 02:01:01;;;;;;;39.43;30.93;;;13.10;99.90;;;;;;5057417;28;20292;-80
2021/05/12 02:03:27;;;;;;;40.53;30.57;;;13.10;99.90;;;;;;5057327;28;20583;-81
2021/05/12 02:05:54;;;;;;;42.17;30.00;;;13.00;99.90;;;;;;5057266;28;20230;-80
2021/05/12 02:08:21;;;;;;;41.53;31.47;;;13.00;99.90;;;;;;5056806;28;20220;-81
2021/05/12 02:10:51;;;;;;;37.07;29.63;;;12.90;99.90;;;;;;5056497;28;20684;-81
2021/05/12 02:13:19;;;;;;;38.73;29.77;;;12.90;99.90;;;;;;5056721;28;20259;-81
2021/05/12 02:15:45;;;;;;;39.53;30.67;;;12.80;99.90;;;;;;5057491;28;20174;-80
2021/05/12 02:18:11;;;;;;;42.03;31.07;;;12.80;99.90;;;;;;5057040;28;20194;-80
2021/05/12 02:20:37;;;;;;;44.87;32.63;;;12.80;99.90;;;;;;5055890;28;20225;-80
2021/05/12 02:23:05;;;;;;;42.10;32.17;;;12.90;99.90;;;;;;5056249;28;20193;-80
2021/05/12 02:25:31;;;;;;;42.67;32.10;;;12.90;99.90;;;;;;5057202;28;20210;-80
2021/05/12 02:27:56;;;;;;;41.07;32.37;;;12.80;99.90;;;;;;5057241;28;20655;-80
2021/05/12 02:30:22;;;;;;;42.63;32.13;;;12.80;99.90;;;;;;5056132;28;20194;-80
2021/05/12 02:32:48;;;;;;;42.03;31.40;;;12.80;99.90;;;;;;5055988;28;20271;-80
2021/05/12 02:35:18;;;;;;;38.37;29.80;;;12.80;99.90;;;;;;5056304;28;20182;-80
2021/05/12 02:37:45;;;;;;;40.40;32.27;;;12.90;99.90;;;;;;5057825;28;20209;-81
2021/05/12 02:40:14;;;;;;;42.67;31.63;;;12.90;99.90;;;;;;5056330;28;20194;-80
2021/05/12 02:42:42;;;;;;;37.27;29.77;;;12.90;99.90;;;;;;5039325;28;20217;-80
2021/05/12 02:45:08;;;;;;;38.77;31.23;;;12.80;99.90;;;;;;5055728;28;20174;-81
2021/05/12 02:47:34;;;;;;;38.67;31.53;;;12.70;99.90;;;;;;5055334;28;20637;-81
2021/05/12 02:50:01;;;;;;;40.90;32.90;;;12.70;99.90;;;;;;5055945;28;20568;-80
2021/05/12 02:52:27;;;;;;;37.13;29.80;;;12.70;99.90;;;;;;5056296;28;20209;-80
2021/05/12 02:54:57;;;;;;;34.67;30.17;;;12.60;99.90;;;;;;5055853;28;20388;-80
2021/05/12 02:57:24;;;;;;;36.97;30.03;;;12.60;99.90;;;;;;5056414;28;20163;-81
2021/05/12 02:59:52;;;;;;;40.20;30.83;;;12.50;99.90;;;;;;5056074;28;20244;-81
2021/05/12 03:02:17;;;;;;;42.80;32.77;;;12.50;99.90;;;;;;5056380;28;20170;-81
2021/05/12 03:04:44;;;;;;;35.60;29.57;;;12.60;99.90;;;;;;5059354;28;20174;-81
2021/05/12 03:07:10;;;;;;;38.90;31.13;;;12.60;99.90;;;;;;5056742;28;20186;-80
2021/05/12 03:09:37;;;;;;;40.40;31.07;;;12.60;99.90;;;;;;5056397;28;20710;-81
2021/05/12 03:12:03;;;;;;;39.87;31.53;;;12.50;99.90;;;;;;5056607;28;20255;-80
2021/05/12 03:14:30;;;;;;;37.93;31.30;;;12.40;99.90;;;;;;5035390;28;20211;-80
2021/05/12 03:16:56;;;;;;;39.23;30.73;;;12.40;99.90;;;;;;5019212;28;20236;-80
2021/05/12 03:19:26;;;;;;;40.80;32.17;;;12.40;99.90;;;;;;5019064;28;20199;-81
2021/05/12 03:21:53;;;;;;;40.73;32.40;;;12.50;99.90;;;;;;5004571;28;20207;-81
2021/05/12 03:24:19;;;;;;;41.30;31.83;;;12.50;99.90;;;;;;5019736;28;20598;-81
2021/05/12 03:26:47;;;;;;;42.27;33.03;;;12.50;99.90;;;;;;5019678;28;20175;-81
2021/05/12 03:29:14;;;;;;;43.43;33.17;;;12.50;99.90;;;;;;5019178;28;20203;-81
2021/05/12 03:31:41;;;;;;;43.27;34.60;;;12.50;99.90;;;;;;5038589;28;20704;-81
2021/05/12 03:34:07;;;;;;;43.07;34.07;;;12.50;99.90;;;;;;5038410;28;20250;-81
2021/05/12 03:36:33;;;;;;;43.63;35.63;;;12.40;99.90;;;;;;5038327;28;20554;-81
2021/05/12 03:39:00;;;;;;;49.43;36.13;;;12.40;99.90;;;;;;5040766;28;20212;-81
2021/05/12 03:41:26;;;;;;;51.90;38.30;;;12.40;99.90;;;;;;5055595;28;20193;-80
2021/05/12 03:43:53;;;;;;;50.07;38.07;;;12.40;99.90;;;;;;5040465;28;20193;-80
2021/05/12 03:46:20;;;;;;;50.73;38.57;;;12.40;99.90;;;;;;5042500;28;20185;-80
2021/05/12 03:48:46;;;;;;;49.37;37.87;;;12.30;99.90;;;;;;5059193;28;20178;-80
2021/05/12 03:51:13;;;;;;;50.73;38.87;;;12.20;99.90;;;;;;5045614;28;20178;-80
2021/05/12 03:53:39;;;;;;;51.27;38.87;;;12.30;99.90;;;;;;5046437;28;20174;-80
2021/05/12 03:56:06;;;;;;;50.10;38.40;;;12.30;99.90;;;;;;5044012;28;20258;-82
2021/05/12 03:58:32;;;;;;;48.20;38.07;;;12.30;99.90;;;;;;5058022;28;20178;-81
2021/05/12 04:00:58;;;;;;;51.33;39.53;;;12.20;99.90;;;;;;5058139;28;20273;-80
2021/05/12 04:03:28;;;;;;;51.47;39.10;;;12.20;99.90;;;;;;5062321;28;20645;-78
2021/05/12 04:05:54;;;;;;;52.13;39.17;;;12.20;99.90;;;;;;5046485;28;20661;-79
2021/05/12 04:08:19;;;;;;;49.33;39.10;;;12.10;99.90;;;;;;5041683;28;20183;-78
2021/05/12 04:10:46;;;;;;;50.97;37.33;;;12.10;99.90;;;;;;5060437;28;20225;-78
2021/05/12 04:13:12;;;;;;;48.70;38.33;;;12.00;99.90;;;;;;5043624;28;20210;-79
2021/05/12 04:15:37;;;;;;;52.87;38.57;;;12.00;99.90;;;;;;5061344;28;20659;-79
2021/05/12 04:18:05;;;;;;;48.70;38.53;;;12.00;99.90;;;;;;5044166;28;20273;-78
2021/05/12 04:20:31;;;;;;;50.27;38.97;;;11.90;99.90;;;;;;5059763;28;20225;-78
2021/05/12 04:22:56;;;;;;;47.13;37.10;;;11.90;99.90;;;;;;5043431;28;20189;-78
2021/05/12 04:25:23;;;;;;;52.40;37.67;;;11.90;99.90;;;;;;5060593;28;20215;-78
2021/05/12 04:27:49;;;;;;;50.93;38.63;;;11.90;99.90;;;;;;5040068;28;20182;-78
2021/05/12 04:30:17;;;;;;;50.97;38.37;;;11.90;99.90;;;;;;5040496;28;20304;-77
2021/05/12 04:32:45;;;;;;;52.53;39.63;;;11.90;99.90;;;;;;5042163;28;20259;-77
2021/05/12 04:35:12;;;;;;;46.97;36.47;;;12.10;99.90;;;;;;5057873;28;20173;-79
2021/05/12 04:37:37;;;;;;;51.27;39.00;;;12.10;99.90;;;;;;5038433;22;20235;-75
2021/05/12 04:40:03;;;;;;;51.90;39.10;;;12.10;99.90;;;;;;4994705;28;20177;-75
2021/05/12 04:42:29;;;;;;;48.37;38.70;;;12.10;99.90;;;;;;4978461;28;20207;-75
2021/05/12 04:44:54;;;;;;;51.23;38.47;;;12.10;99.90;;;;;;5010885;28;20231;-75
2021/05/12 04:47:20;;;;;;;51.40;38.30;;;12.10;99.90;;;;;;4994582;28;20191;-75
2021/05/12 04:49:46;;;;;;;53.40;39.27;;;12.10;99.90;;;;;;4978328;28;20187;-75
2021/05/12 04:52:12;;;;;;;50.17;38.10;;;12.10;99.90;;;;;;5011059;28;20218;-75
2021/05/12 04:54:37;;;;;;;50.67;39.57;;;12.00;99.90;;;;;;4978486;28;20178;-75
2021/05/12 04:57:03;;;;;;;55.10;39.67;;;12.00;99.90;;;;;;4977789;28;20196;-73
2021/05/12 04:59:29;;;;;;;49.83;38.87;;;12.10;99.90;;;;;;4994606;28;20263;-73
2021/05/12 05:01:54;;;;;;;50.53;37.63;;;12.10;99.90;;;;;;5010612;28;20194;-73
2021/05/12 05:04:21;;;;;;;49.57;38.20;;;12.10;99.90;;;;;;4994529;28;20178;-73
2021/05/12 05:06:47;;;;;;;50.70;37.40;;;12.10;99.90;;;;;;5010515;28;20203;-73
2021/05/12 05:09:12;;;;;;;50.50;38.77;;;12.10;99.90;;;;;;4994424;28;20184;-73
2021/05/12 05:11:38;;;;;;;48.70;37.50;;;12.20;99.90;;;;;;5010674;28;20216;-73
2021/05/12 05:14:04;;;;;;;48.17;36.33;;;12.30;99.90;;;;;;5010608;28;20631;-72
2021/05/12 05:16:31;;;;;;;46.03;35.73;;;12.40;99.90;;;;;;4994210;28;20242;-72
2021/05/12 05:18:57;;;;;;;44.77;35.20;;;12.60;99.90;;;;;;4994270;28;20182;-71
2021/05/12 05:21:22;;;;;;;47.27;37.97;;;12.60;99.90;;;;;;5008425;28;20172;-71
2021/05/12 05:23:48;;;;;;;44.83;34.97;;;12.70;99.90;;;;;;4974707;28;20260;-72
2021/05/12 05:26:13;;;;;;;43.97;35.73;;;12.80;99.90;;;;;;4990644;28;20196;-72
2021/05/12 05:28:39;;;;;;;42.80;35.17;;;12.90;99.90;;;;;;5010313;28;20175;-74
2021/05/12 05:31:04;;;;;;;41.77;34.57;;;13.00;99.90;;;;;;5011407;28;20172;-74
2021/05/12 05:33:30;;;;;;;40.47;34.27;;;13.20;99.90;;;;;;5011592;28;20176;-70
2021/05/12 05:35:55;;;;;;;40.60;33.50;;;13.20;99.90;;;;;;5011295;28;20311;-72
2021/05/12 05:38:21;;;;;;;41.43;33.40;;;13.00;99.90;;;;;;5009848;28;20176;-70
2021/05/12 05:40:47;;;;;;;40.90;33.70;;;13.00;99.90;;;;;;5010622;28;20521;-70
2021/05/12 05:43:13;;;;;;;44.70;34.23;;;13.00;99.90;;;;;;5012393;28;20214;-70
2021/05/12 05:45:41;;;;;;;39.37;32.27;;;13.00;99.90;;;;;;5013672;28;20187;-70
2021/05/12 05:48:07;;;;;;;40.40;31.47;;;13.10;99.90;;;;;;5013624;28;20172;-70
2021/05/12 05:50:33;;;;;;;37.03;31.10;;;13.20;99.90;;;;;;4980902;28;20188;-74
2021/05/12 05:52:58;;;;;;;35.80;30.20;;;13.50;99.90;;;;;;4977642;28;20232;-74
2021/05/12 05:55:24;;;;;;;36.70;29.40;;;13.60;99.90;;;;;;4977741;28;20254;-74
2021/05/12 05:57:50;;;;;;;35.50;30.17;;;13.70;99.90;;;;;;4997362;28;20211;-74
2021/05/12 06:00:16;;;;;;;39.70;32.20;;;13.70;99.90;;;;;;5009980;28;20173;-74
2021/05/12 06:02:42;;;;;;;38.77;29.90;;;13.80;99.90;;;;;;4996768;28;20191;-75
2021/05/12 06:05:08;;;;;;;32.67;27.93;;;14.00;99.90;;;;;;4996695;28;20262;-76
2021/05/12 06:07:33;;;;;;;32.57;26.97;;;14.10;99.90;;;;;;4997485;28;20196;-72
2021/05/12 06:09:59;;;;;;;31.30;26.50;;;14.30;99.90;;;;;;5000689;28;20202;-72
2021/05/12 06:12:24;;;;;;;31.57;25.97;;;14.50;99.90;;;;;;4994577;28;20328;-72
2021/05/12 06:14:50;;;;;;;30.07;25.60;;;14.80;99.90;;;;;;5014620;28;20168;-72
2021/05/12 06:17:16;;;;;;;33.80;26.47;;;15.00;99.90;;;;;;5013594;28;20199;-72
2021/05/12 06:19:41;;;;;;;28.77;25.20;;;15.20;99.90;;;;;;5013354;28;20210;-72
2021/05/12 06:22:07;;;;;;;30.00;24.83;;;15.30;99.90;;;;;;5013413;28;20262;-73
2021/05/12 06:24:32;;;;;;;28.33;24.10;;;15.30;99.90;;;;;;5011556;28;20207;-73
2021/05/12 06:26:58;;;;;;;27.20;22.53;;;15.20;99.90;;;;;;5020504;28;20245;-74
2021/05/12 06:29:24;;;;;;;30.27;24.30;;;15.10;99.90;;;;;;4993962;28;20239;-74
2021/05/12 06:31:49;;;;;;;27.53;23.23;;;14.80;99.90;;;;;;4995959;28;20215;-73
2021/05/12 06:34:15;;;;;;;26.87;22.53;;;14.80;99.90;;;;;;5010980;28;20168;-73
2021/05/12 06:36:40;;;;;;;30.90;22.83;;;14.60;99.90;;;;;;5013422;28;20290;-75
2021/05/12 06:39:06;;;;;;;26.97;23.33;;;14.60;99.90;;;;;;4996193;28;20172;-75
2021/05/12 06:41:31;;;;;;;25.83;21.90;;;14.50;99.90;;;;;;4996127;28;20188;-75
2021/05/12 06:43:58;;;;;;;26.90;22.13;;;14.60;99.90;;;;;;5013451;28;20191;-76
2021/05/12 06:46:23;;;;;;;27.40;22.17;;;14.60;99.90;;;;;;4996401;28;20616;-76
2021/05/12 06:48:49;;;;;;;27.57;21.83;;;14.80;99.90;;;;;;5012853;28;20239;-75
2021/05/12 06:51:14;;;;;;;24.63;20.70;;;15.10;99.90;;;;;;5012691;28;20202;-75
2021/05/12 06:53:40;;;;;;;24.63;21.00;;;15.40;99.90;;;;;;5011450;28;20182;-76
2021/05/12 06:56:06;;;;;;;23.77;19.33;;;15.70;99.90;;;;;;5012508;28;20196;-76
2021/05/12 06:58:34;;;;;;;22.00;17.40;;;15.70;99.90;;;;;;4996165;28;20363;-77
2021/05/12 07:00:59;;;;;;;20.63;17.53;;;15.60;99.90;;;;;;4996660;28;20168;-77
2021/05/12 07:03:25;;;;;;;24.87;18.00;;;15.60;99.90;;;;;;5013582;28;20520;-77
2021/05/12 07:05:54;;;;;;;18.63;16.10;;;15.70;99.90;;;;;;5012447;28;20238;-75
2021/05/12 07:08:23;;;;;;;21.47;17.40;;;15.60;99.90;;;;;;5012529;28;20180;-75
2021/05/12 07:10:49;;;;;;;19.60;15.53;;;15.60;99.90;;;;;;4995989;28;20238;-74
2021/05/12 07:13:14;;;;;;;22.63;15.40;;;15.60;99.90;;;;;;5012258;28;20202;-74
2021/05/12 07:15:40;;;;;;;18.40;15.23;;;15.50;99.90;;;;;;4996035;28;20169;-74
2021/05/12 07:18:05;;;;;;;17.13;13.90;;;15.50;99.90;;;;;;5010905;28;20186;-73
2021/05/12 07:20:31;;;;;;;19.83;13.83;;;15.60;99.90;;;;;;5012025;28;20172;-73
2021/05/12 07:23:10;;;;;;;16.10;13.27;;;15.60;99.90;;;;;;4995612;28;20187;-73
2021/05/12 07:25:36;;;;;;;15.90;12.40;;;15.50;99.90;;;;;;5028151;28;20182;-73
2021/05/12 07:28:02;;;;;;;21.17;12.47;;;15.40;99.90;;;;;;4995333;28;20179;-73
2021/05/12 07:30:27;;;;;;;17.60;12.93;;;15.50;99.90;;;;;;4995696;28;20176;-73
2021/05/12 07:32:53;;;;;;;17.83;12.03;;;15.70;99.90;;;;;;4995387;28;20294;-73
2021/05/12 07:35:19;;;;;;;15.83;12.10;;;15.60;99.90;;;;;;4995241;28;20178;-73
2021/05/12 07:37:44;;;;;;;14.50;10.93;;;15.80;99.90;;;;;;4995103;28;20211;-73
2021/05/12 07:40:10;;;;;;;18.73;11.43;;;15.90;99.90;;;;;;4995368;28;20179;-73
2021/05/12 07:42:39;;;;;;;15.30;11.30;;;15.80;99.90;;;;;;5011572;28;20179;-73
2021/05/12 07:45:05;;;;;;;12.57;9.90;;;16.00;99.90;;;;;;5027952;28;20211;-73
2021/05/12 07:47:30;;;;;;;14.80;11.23;;;16.00;99.90;;;;;;5010980;28;20576;-73
2021/05/12 07:49:56;;;;;;;18.67;11.77;;;16.10;99.90;;;;;;4996320;28;20199;-73
2021/05/12 07:52:21;;;;;;;13.10;9.67;;;16.20;99.90;;;;;;5011773;28;20207;-73
2021/05/12 07:54:48;;;;;;;13.20;9.00;;;16.30;99.90;;;;;;5012595;28;20179;-73
2021/05/12 07:57:14;;;;;;;14.87;9.43;;;16.60;99.90;;;;;;4994802;28;20192;-73
2021/05/12 07:59:39;;;;;;;13.07;9.03;;;16.70;99.90;;;;;;4994912;28;20179;-73
2021/05/12 08:02:05;;;;;;;14.77;8.20;;;16.80;99.90;;;;;;4995180;28;20201;-73
2021/05/12 08:04:34;;;;;;;10.87;7.57;;;17.20;99.90;;;;;;5010942;28;20183;-73
2021/05/12 08:06:59;;;;;;;13.30;6.93;;;17.60;99.90;;;;;;5010937;28;20209;-73
2021/05/12 08:09:25;;;;;;;12.97;7.20;;;17.70;99.90;;;;;;4994703;28;20607;-73
2021/05/12 08:11:51;;;;;;;8.53;6.73;;;17.60;99.90;;;;;;5011202;28;20231;-73
2021/05/12 08:14:17;;;;;;;11.80;6.20;;;17.40;99.90;;;;;;4994826;28;20194;-73
2021/05/12 08:16:44;;;;;;;14.23;7.10;;;17.40;99.90;;;;;;4994414;28;20239;-73
2021/05/12 08:19:10;;;;;;;12.23;6.60;;;17.40;99.90;;;;;;5011207;28;20176;-73
2021/05/12 08:21:36;;;;;;;11.07;6.70;;;17.40;99.90;;;;;;5011206;28;20179;-73
2021/05/12 08:24:01;;;;;;;11.00;6.23;;;17.50;99.90;;;;;;5011988;28;20653;-73
2021/05/12 08:26:28;;;;;;;8.23;6.77;;;17.40;99.90;;;;;;5010681;28;20199;-73
2021/05/12 08:28:54;;;;;;;11.90;6.93;;;17.40;99.90;;;;;;5011159;28;20681;-73
2021/05/12 08:31:19;;;;;;;15.00;7.73;;;17.40;99.90;;;;;;4994641;28;20206;-73
2021/05/12 08:33:45;;;;;;;11.00;6.80;;;17.60;99.90;;;;;;4994709;28;20199;-73
2021/05/12 08:36:12;;;;;;;11.83;6.77;;;17.80;99.90;;;;;;4994538;28;20203;-73
2021/05/12 08:38:37;;;;;;;10.50;6.60;;;18.00;99.90;;;;;;5010548;28;20180;-73
2021/05/12 08:41:03;;;;;;;7.70;6.47;;;18.10;99.90;;;;;;5010808;28;20182;-73
2021/05/12 08:43:29;;;;;;;12.57;6.30;;;18.20;99.90;;;;;;4994438;28;20175;-73
2021/05/12 08:45:55;;;;;;;11.17;6.90;;;18.40;99.90;;;;;;5010618;28;20191;-73
2021/05/12 08:48:20;;;;;;;12.50;6.63;;;18.60;99.90;;;;;;5010424;28;20179;-73
2021/05/12 08:50:46;;;;;;;10.50;6.27;;;18.60;99.90;;;;;;4994500;28;20253;-73
2021/05/12 08:53:12;;;;;;;12.40;6.47;;;18.60;99.90;;;;;;5010675;28;20207;-73
2021/05/12 08:55:38;;;;;;;11.37;6.37;;;18.60;99.90;;;;;;5011925;28;20199;-73
2021/05/12 08:58:03;;;;;;;11.77;6.20;;;18.70;99.90;;;;;;4994278;28;20195;-73
2021/05/12 09:00:29;;;;;;;9.03;6.20;;;18.80;99.90;;;;;;5011530;28;20643;-73
2021/05/12 09:02:55;;;;;;;11.90;6.60;;;19.00;99.90;;;;;;5010667;28;20176;-73
2021/05/12 09:05:20;;;;;;;8.43;5.77;;;18.80;99.90;;;;;;4994461;28;20184;-73
2021/05/12 09:07:46;;;;;;;11.90;6.23;;;18.70;99.90;;;;;;4977809;28;20235;-73
2021/05/12 09:10:12;;;;;;;11.93;6.23;;;18.80;99.90;;;;;;5010725;28;20372;-73
2021/05/12 09:12:48;;;;;;;10.47;6.70;;;18.90;99.90;;;;;;4993946;28;20623;-73
2021/05/12 09:15:18;;;;;;;9.63;6.40;;;19.10;99.90;;;;;;5010893;28;20536;-73
2021/05/12 09:17:45;;;;;;;10.50;6.60;;;19.20;99.90;;;;;;5012225;28;20238;-74
2021/05/12 09:20:37;;;;;;;12.07;6.43;;;19.30;99.90;;;;;;4982760;28;20167;-78
2021/05/12 09:23:08;;;;;;;10.57;6.17;;;19.30;99.90;;;;;;4990181;28;20195;-77
2021/05/12 09:25:36;;;;;;;9.87;5.80;;;19.40;99.90;;;;;;4998311;28;20174;-76
2021/05/12 09:28:07;;;;;;;11.00;6.27;;;19.50;99.90;;;;;;4997893;28;20180;-77
2021/05/12 09:30:36;;;;;;;9.87;5.30;;;19.60;99.90;;;;;;5012273;28;20186;-77
2021/05/12 09:33:02;;;;;;;8.17;4.50;;;19.70;99.90;;;;;;4997554;28;20202;-77
2021/05/12 09:35:27;;;;;;;8.13;4.37;;;19.70;99.90;;;;;;5014049;28;20167;-77
2021/05/12 09:37:53;;;;;;;10.67;5.47;;;19.90;99.90;;;;;;4996844;28;20218;-77
2021/05/12 09:40:21;;;;;;;10.07;5.43;;;20.20;99.90;;;;;;4992620;28;20175;-77
2021/05/12 09:42:58;;;;;;;7.80;5.10;;;20.10;99.90;;;;;;5012793;28;20177;-77
2021/05/12 09:45:24;;;;;;;11.40;4.97;;;20.30;99.90;;;;;;5005678;28;20180;-76
2021/05/12 09:48:00;;;;;;;8.07;4.77;;;20.50;99.90;;;;;;4980568;28;20590;-76
2021/05/12 09:50:31;;;;;;;9.47;4.70;;;20.20;99.90;;;;;;5011988;28;20576;-77
2021/05/12 09:52:58;;;;;;;7.77;4.73;;;19.90;99.90;;;;;;5013797;28;20210;-77
2021/05/12 09:55:39;;;;;;;11.47;5.40;;;19.90;99.90;;;;;;4994311;28;20547;-77
2021/05/12 09:58:11;;;;;;;9.13;4.90;;;19.60;99.90;;;;;;5013474;28;20174;-76
2021/05/12 10:00:44;;;;;;;11.10;5.83;;;19.60;99.90;;;;;;5011285;28;20225;-77
2021/05/12 10:03:10;;;;;;;9.07;5.47;;;19.60;99.90;;;;;;4996852;28;20662;-77
2021/05/12 10:05:58;;;;;;;12.50;5.20;;;19.90;99.90;;;;;;4996955;28;20262;-77
2021/05/12 10:08:28;;;;;;;11.47;4.87;;;20.10;99.90;;;;;;4996885;28;20183;-76
2021/05/12 10:11:07;;;;;;;10.80;5.40;;;20.00;99.90;;;;;;4996837;28;20537;-76
2021/05/12 10:13:33;;;;;;;7.67;5.40;;;20.00;99.90;;;;;;4997726;28;20196;-76
2021/05/12 10:15:59;;;;;;;8.67;5.00;;;19.70;99.90;;;;;;4997027;28;20199;-76
2021/05/12 10:18:25;;;;;;;9.77;5.60;;;19.60;99.90;;;;;;5012634;28;20172;-77
2021/05/12 10:20:57;;;;;;;9.97;4.80;;;19.80;99.90;;;;;;4996749;28;20263;-78
2021/05/12 10:23:22;;;;;;;9.83;4.97;;;20.00;99.90;;;;;;4982343;28;20186;-73
2021/05/12 10:25:48;;;;;;;6.83;4.63;;;19.80;99.90;;;;;;4997040;28;20179;-73
2021/05/12 10:28:13;;;;;;;7.27;4.50;;;19.90;99.90;;;;;;4996418;28;20171;-73
2021/05/12 10:30:39;;;;;;;6.73;4.47;;;19.90;99.90;;;;;;5013160;28;20202;-73
2021/05/12 10:33:08;;;;;;;9.07;4.80;;;20.00;99.90;;;;;;4996569;28;20203;-73
2021/05/12 10:35:35;;;;;;;9.77;5.40;;;20.20;99.90;;;;;;4997056;28;20174;-73
2021/05/12 10:38:01;;;;;;;7.70;4.93;;;20.30;99.90;;;;;;5013141;28;20171;-74
2021/05/12 10:40:30;;;;;;;7.67;4.87;;;20.40;99.90;;;;;;4996711;28;20226;-73
2021/05/12 10:45:48;;;;;;;8.27;4.60;;;20.40;99.90;;;;;;5013128;28;20163;-73
2021/05/12 10:48:26;;;;;;;9.93;4.20;;;20.50;99.90;;;;;;5013829;28;20531;-73
2021/05/12 10:50:51;;;;;;;6.77;3.77;;;20.60;99.90;;;;;;5013755;28;20176;-73
2021/05/12 10:53:20;;;;;;;5.67;3.57;;;20.50;99.90;;;;;;5012634;28;20211;-74
2021/05/12 10:56:01;;;;;;;6.17;3.87;;;20.50;99.90;;;;;;5012620;28;20199;-74
2021/05/12 10:58:28;;;;;;;5.20;3.47;;;20.40;99.90;;;;;;5013622;28;20195;-74
2021/05/12 11:01:03;;;;;;;6.30;3.30;;;20.30;99.90;;;;;;4996300;28;20635;-73
2021/05/12 11:03:48;;;;;;;6.10;3.90;;;20.30;99.90;;;;;;5012497;28;20175;-73
2021/05/12 11:06:13;;;;;;;7.63;4.40;;;20.10;99.90;;;;;;5013570;28;20651;-73
2021/05/12 11:09:18;;;;;;;6.70;4.00;;;19.90;99.90;;;;;;5012272;28;20261;-73
2021/05/12 11:11:44;;;;;;;8.33;4.10;;;19.60;99.90;;;;;;5012928;28;20310;-73
2021/05/12 11:14:28;;;;;;;5.67;4.17;;;19.60;99.90;;;;;;5013609;28;20359;-74
2021/05/12 11:17:21;;;;;;;7.57;4.30;;;19.90;99.90;;;;;;5013212;28;20203;-73
2021/05/12 11:19:56;;;;;;;9.70;4.20;;;20.20;99.90;;;;;;5012237;28;20156;-73
2021/05/12 11:22:46;;;;;;;9.13;4.00;;;20.40;99.90;;;;;;4997032;28;20185;-73
2021/05/12 11:27:55;;;;;;;7.40;3.77;;;20.00;99.90;;;;;;5012908;28;20199;-76
2021/05/12 11:33:04;;;;;;;5.00;2.50;;;19.90;99.90;;;;;;5013102;28;20207;-76
2021/05/12 11:35:31;;;;;;;5.67;2.50;;;19.70;99.90;;;;;;4995693;28;20180;-76
2021/05/12 11:37:56;;;;;;;8.80;3.00;;;19.40;99.90;;;;;;5011687;28;20548;-76
2021/05/12 11:40:22;;;;;;;4.37;2.50;;;19.30;99.90;;;;;;5011279;28;20180;-77
2021/05/12 11:42:48;;;;;;;7.07;3.07;;;19.00;99.90;;;;;;5011519;28;20274;-76
2021/05/12 11:45:20;;;;;;;5.27;2.27;;;18.80;99.90;;;;;;5011728;28;20322;-76
2021/05/12 11:47:58;;;;;;;6.50;2.63;;;18.60;99.90;;;;;;4996010;28;20215;-77
2021/05/12 11:50:28;;;;;;;5.63;3.30;;;18.40;99.90;;;;;;4997281;28;20171;-77
2021/05/12 11:52:53;;;;;;;7.33;3.80;;;18.30;99.90;;;;;;4979561;28;20215;-76
2021/05/12 11:55:21;;;;;;;6.30;3.70;;;18.20;99.90;;;;;;4979112;28;20307;-75
2021/05/12 11:57:47;;;;;;;7.60;4.10;;;18.00;99.90;;;;;;5011306;28;20254;-75
2021/05/12 12:00:22;;;;;;;6.20;3.63;;;17.90;99.90;;;;;;4995294;28;20283;-75
2021/05/12 12:03:20;;;;;;;4.87;3.30;;;17.90;99.90;;;;;;4996634;28;20198;-75
2021/05/12 12:05:51;;;;;;;7.67;3.60;;;17.80;99.90;;;;;;5000862;28;20608;-75
2021/05/12 12:08:18;;;;;;;8.67;3.97;;;18.00;99.90;;;;;;4980369;28;20222;-75
2021/05/12 12:10:44;;;;;;;7.33;3.80;;;18.00;99.90;;;;;;4995081;28;20230;-75
2021/05/12 12:13:11;;;;;;;6.33;3.60;;;18.00;99.90;;;;;;4994959;28;20610;-75
2021/05/12 12:15:44;;;;;;;7.07;3.80;;;17.90;99.90;;;;;;4995148;28;20179;-75
2021/05/12 12:18:10;;;;;;;6.60;3.53;;;17.90;99.90;;;;;;4978620;28;20179;-75
2021/05/12 12:20:36;;;;;;;6.20;3.50;;;17.80;99.90;;;;;;4994971;28;20178;-74
2021/05/12 12:23:02;;;;;;;4.73;3.00;;;17.80;99.90;;;;;;5012347;28;20240;-75
2021/05/12 12:25:41;;;;;;;6.60;4.00;;;17.80;99.90;;;;;;5010200;28;20188;-75
2021/05/12 12:28:07;;;;;;;7.90;3.93;;;17.80;99.90;;;;;;4974881;28;20275;-75
2021/05/12 12:30:32;;;;;;;8.90;4.20;;;17.90;99.90;;;;;;4991424;28;20682;-74
2021/05/12 12:32:58;;;;;;;6.63;4.10;;;17.80;99.90;;;;;;4979475;28;20318;-75
2021/05/12 12:35:23;;;;;;;5.70;4.10;;;17.80;99.90;;;;;;5026849;28;20225;-73
2021/05/12 12:37:49;;;;;;;7.30;4.30;;;17.80;99.90;;;;;;5011649;28;20207;-73
2021/05/12 12:40:14;;;;;;;6.27;3.90;;;17.80;99.90;;;;;;5012069;28;20183;-73
2021/05/12 12:42:52;;;;;;;6.47;3.30;;;17.80;99.90;;;;;;5027238;28;20183;-74